sensor_id;sensor_type;location;lat;lon;timestamp;P1;durP1;ratioP1;P2;durP2;ratioP2
15716;SDS011;7960;50.908;4.204;2023-06-10T00:00:26;14.17;;;9.97;;
15716;SDS011;7960;50.908;4.204;2023-06-10T00:02:53;13.07;;;10.60;;
15716;SDS011;7960;50.908;4.204;2023-06-10T00:05:20;11.83;;;10.70;;
15716;SDS011;7960;50.908;4.204;2023-06-10T00:07:47;11.07;;;9.97;;
15716;SDS011;7960;50.908;4.204;2023-06-10T00:10:16;11.03;;;9.97;;
15716;SDS011;7960;50.908;4.204;2023-06-10T00:12:43;11.10;;;10.00;;
15716;SDS011;7960;50.908;4.204;2023-06-10T00:15:10;11.43;;;10.23;;
15716;SDS011;7960;50.908;4.204;2023-06-10T00:17:37;11.80;;;10.47;;
15716;SDS011;7960;50.908;4.204;2023-06-10T00:20:05;14.23;;;11.03;;
15716;SDS011;7960;50.908;4.204;2023-06-10T00:22:34;11.80;;;10.60;;
15716;SDS011;7960;50.908;4.204;2023-06-10T00:25:00;11.13;;;10.10;;
15716;SDS011;7960;50.908;4.204;2023-06-10T00:27:30;12.17;;;10.83;;
15716;SDS011;7960;50.908;4.204;2023-06-10T00:30:00;10.97;;;9.90;;
15716;SDS011;7960;50.908;4.204;2023-06-10T00:32:29;14.07;;;10.50;;
15716;SDS011;7960;50.908;4.204;2023-06-10T00:34:56;11.20;;;10.20;;
15716;SDS011;7960;50.908;4.204;2023-06-10T00:37:23;14.40;;;10.90;;
15716;SDS011;7960;50.908;4.204;2023-06-10T00:39:49;11.70;;;10.60;;
15716;SDS011;7960;50.908;4.204;2023-06-10T00:42:16;11.33;;;10.20;;
15716;SDS011;7960;50.908;4.204;2023-06-10T00:44:46;12.93;;;10.50;;
15716;SDS011;7960;50.908;4.204;2023-06-10T00:47:13;11.60;;;10.43;;
15716;SDS011;7960;50.908;4.204;2023-06-10T00:49:40;12.30;;;11.03;;
15716;SDS011;7960;50.908;4.204;2023-06-10T00:52:07;11.73;;;10.70;;
15716;SDS011;7960;50.908;4.204;2023-06-10T00:54:35;13.10;;;10.73;;
15716;SDS011;7960;50.908;4.204;2023-06-10T00:57:03;12.23;;;10.47;;
15716;SDS011;7960;50.908;4.204;2023-06-10T00:59:31;11.70;;;10.33;;
15716;SDS011;7960;50.908;4.204;2023-06-10T01:02:00;12.50;;;11.33;;
15716;SDS011;7960;50.908;4.204;2023-06-10T01:04:28;11.80;;;10.60;;
15716;SDS011;7960;50.908;4.204;2023-06-10T01:06:57;11.77;;;10.40;;
15716;SDS011;7960;50.908;4.204;2023-06-10T01:09:37;11.77;;;10.60;;
15716;SDS011;7960;50.908;4.204;2023-06-10T01:12:10;11.90;;;10.80;;
15716;SDS011;7960;50.908;4.204;2023-06-10T01:14:49;12.87;;;11.37;;
15716;SDS011;7960;50.908;4.204;2023-06-10T01:17:18;12.07;;;10.80;;
15716;SDS011;7960;50.908;4.204;2023-06-10T01:19:52;12.40;;;11.20;;
15716;SDS011;7960;50.908;4.204;2023-06-10T01:22:22;12.07;;;10.63;;
15716;SDS011;7960;50.908;4.204;2023-06-10T01:24:50;11.63;;;10.47;;
15716;SDS011;7960;50.908;4.204;2023-06-10T01:27:19;11.93;;;10.73;;
15716;SDS011;7960;50.908;4.204;2023-06-10T01:29:50;12.50;;;11.20;;
15716;SDS011;7960;50.908;4.204;2023-06-10T01:32:23;12.23;;;10.97;;
15716;SDS011;7960;50.908;4.204;2023-06-10T01:34:55;12.43;;;11.33;;
15716;SDS011;7960;50.908;4.204;2023-06-10T01:37:24;14.20;;;11.10;;
15716;SDS011;7960;50.908;4.204;2023-06-10T01:39:54;12.30;;;11.13;;
15716;SDS011;7960;50.908;4.204;2023-06-10T01:42:23;12.43;;;11.03;;
15716;SDS011;7960;50.908;4.204;2023-06-10T01:44:50;12.37;;;11.00;;
15716;SDS011;7960;50.908;4.204;2023-06-10T01:47:17;12.93;;;11.70;;
15716;SDS011;7960;50.908;4.204;2023-06-10T01:49:44;12.97;;;11.60;;
15716;SDS011;7960;50.908;4.204;2023-06-10T01:52:11;12.33;;;10.97;;
15716;SDS011;7960;50.908;4.204;2023-06-10T01:54:40;13.37;;;11.17;;
15716;SDS011;7960;50.908;4.204;2023-06-10T01:57:06;12.10;;;11.10;;
15716;SDS011;7960;50.908;4.204;2023-06-10T01:59:33;12.40;;;11.10;;
15716;SDS011;7960;50.908;4.204;2023-06-10T02:02:01;13.23;;;11.90;;
15716;SDS011;7960;50.908;4.204;2023-06-10T02:04:28;12.70;;;11.50;;
15716;SDS011;7960;50.908;4.204;2023-06-10T02:06:55;17.40;;;11.80;;
15716;SDS011;7960;50.908;4.204;2023-06-10T02:09:22;15.23;;;11.67;;
15716;SDS011;7960;50.908;4.204;2023-06-10T02:11:51;12.13;;;11.07;;
15716;SDS011;7960;50.908;4.204;2023-06-10T02:14:18;12.30;;;11.17;;
15716;SDS011;7960;50.908;4.204;2023-06-10T02:16:45;12.57;;;11.37;;
15716;SDS011;7960;50.908;4.204;2023-06-10T02:19:12;12.73;;;11.57;;
15716;SDS011;7960;50.908;4.204;2023-06-10T02:21:39;12.63;;;11.53;;
15716;SDS011;7960;50.908;4.204;2023-06-10T02:24:07;12.83;;;11.53;;
15716;SDS011;7960;50.908;4.204;2023-06-10T02:26:34;14.03;;;12.00;;
15716;SDS011;7960;50.908;4.204;2023-06-10T02:29:02;12.53;;;11.20;;
15716;SDS011;7960;50.908;4.204;2023-06-10T02:31:29;12.40;;;11.10;;
15716;SDS011;7960;50.908;4.204;2023-06-10T02:33:56;12.93;;;11.63;;
15716;SDS011;7960;50.908;4.204;2023-06-10T02:36:23;13.83;;;12.53;;
15716;SDS011;7960;50.908;4.204;2023-06-10T02:38:52;13.53;;;12.27;;
15716;SDS011;7960;50.908;4.204;2023-06-10T02:41:19;13.70;;;12.27;;
15716;SDS011;7960;50.908;4.204;2023-06-10T02:43:47;15.40;;;12.40;;
15716;SDS011;7960;50.908;4.204;2023-06-10T02:46:15;13.40;;;12.17;;
15716;SDS011;7960;50.908;4.204;2023-06-10T02:48:42;13.90;;;12.47;;
15716;SDS011;7960;50.908;4.204;2023-06-10T02:51:09;14.20;;;12.53;;
15716;SDS011;7960;50.908;4.204;2023-06-10T02:53:36;13.73;;;12.33;;
15716;SDS011;7960;50.908;4.204;2023-06-10T02:56:03;13.37;;;12.07;;
15716;SDS011;7960;50.908;4.204;2023-06-10T02:58:30;13.40;;;12.10;;
15716;SDS011;7960;50.908;4.204;2023-06-10T03:00:57;13.67;;;12.40;;
15716;SDS011;7960;50.908;4.204;2023-06-10T03:03:25;14.20;;;12.70;;
15716;SDS011;7960;50.908;4.204;2023-06-10T03:05:52;14.07;;;12.80;;
15716;SDS011;7960;50.908;4.204;2023-06-10T03:08:19;14.07;;;12.60;;
15716;SDS011;7960;50.908;4.204;2023-06-10T03:10:46;14.57;;;13.13;;
15716;SDS011;7960;50.908;4.204;2023-06-10T03:13:13;14.47;;;12.83;;
15716;SDS011;7960;50.908;4.204;2023-06-10T03:15:40;14.53;;;12.80;;
15716;SDS011;7960;50.908;4.204;2023-06-10T03:18:07;13.70;;;12.40;;
15716;SDS011;7960;50.908;4.204;2023-06-10T03:20:35;14.03;;;12.70;;
15716;SDS011;7960;50.908;4.204;2023-06-10T03:23:03;15.77;;;14.17;;
15716;SDS011;7960;50.908;4.204;2023-06-10T03:25:31;21.07;;;13.03;;
15716;SDS011;7960;50.908;4.204;2023-06-10T03:27:58;14.77;;;13.37;;
15716;SDS011;7960;50.908;4.204;2023-06-10T03:30:25;14.50;;;13.20;;
15716;SDS011;7960;50.908;4.204;2023-06-10T03:32:51;15.20;;;13.60;;
15716;SDS011;7960;50.908;4.204;2023-06-10T03:35:18;15.27;;;13.27;;
15716;SDS011;7960;50.908;4.204;2023-06-10T03:37:47;15.50;;;13.87;;
15716;SDS011;7960;50.908;4.204;2023-06-10T03:40:14;15.70;;;12.87;;
15716;SDS011;7960;50.908;4.204;2023-06-10T03:42:41;16.83;;;13.90;;
15716;SDS011;7960;50.908;4.204;2023-06-10T03:45:09;15.63;;;14.00;;
15716;SDS011;7960;50.908;4.204;2023-06-10T03:47:37;15.50;;;13.63;;
15716;SDS011;7960;50.908;4.204;2023-06-10T03:50:06;15.03;;;13.47;;
15716;SDS011;7960;50.908;4.204;2023-06-10T03:52:34;15.10;;;13.60;;
15716;SDS011;7960;50.908;4.204;2023-06-10T03:55:02;15.27;;;13.67;;
15716;SDS011;7960;50.908;4.204;2023-06-10T03:57:30;15.03;;;13.60;;
15716;SDS011;7960;50.908;4.204;2023-06-10T03:59:57;15.17;;;13.67;;
15716;SDS011;7960;50.908;4.204;2023-06-10T04:02:24;16.27;;;13.87;;
15716;SDS011;7960;50.908;4.204;2023-06-10T04:04:51;16.93;;;13.60;;
15716;SDS011;7960;50.908;4.204;2023-06-10T04:07:18;16.53;;;13.83;;
15716;SDS011;7960;50.908;4.204;2023-06-10T04:09:45;17.60;;;13.90;;
15716;SDS011;7960;50.908;4.204;2023-06-10T04:12:14;15.77;;;14.17;;
15716;SDS011;7960;50.908;4.204;2023-06-10T04:14:41;16.40;;;14.60;;
15716;SDS011;7960;50.908;4.204;2023-06-10T04:17:08;15.17;;;13.67;;
15716;SDS011;7960;50.908;4.204;2023-06-10T04:19:35;15.43;;;13.93;;
15716;SDS011;7960;50.908;4.204;2023-06-10T04:22:02;15.93;;;14.20;;
15716;SDS011;7960;50.908;4.204;2023-06-10T04:24:31;15.60;;;14.10;;
15716;SDS011;7960;50.908;4.204;2023-06-10T04:26:58;17.30;;;15.17;;
15716;SDS011;7960;50.908;4.204;2023-06-10T04:29:26;16.20;;;14.27;;
15716;SDS011;7960;50.908;4.204;2023-06-10T04:31:53;18.17;;;13.97;;
15716;SDS011;7960;50.908;4.204;2023-06-10T04:34:29;16.10;;;14.40;;
15716;SDS011;7960;50.908;4.204;2023-06-10T04:36:59;15.47;;;14.03;;
15716;SDS011;7960;50.908;4.204;2023-06-10T04:39:26;20.07;;;14.13;;
15716;SDS011;7960;50.908;4.204;2023-06-10T04:41:53;19.03;;;15.30;;
15716;SDS011;7960;50.908;4.204;2023-06-10T04:44:20;17.30;;;15.33;;
15716;SDS011;7960;50.908;4.204;2023-06-10T04:46:48;16.60;;;14.93;;
15716;SDS011;7960;50.908;4.204;2023-06-10T04:49:15;16.17;;;14.67;;
15716;SDS011;7960;50.908;4.204;2023-06-10T04:51:42;20.17;;;14.80;;
15716;SDS011;7960;50.908;4.204;2023-06-10T04:54:09;16.30;;;14.50;;
15716;SDS011;7960;50.908;4.204;2023-06-10T04:56:36;16.97;;;15.17;;
15716;SDS011;7960;50.908;4.204;2023-06-10T04:59:04;16.50;;;14.83;;
15716;SDS011;7960;50.908;4.204;2023-06-10T05:01:31;16.27;;;14.77;;
15716;SDS011;7960;50.908;4.204;2023-06-10T05:03:59;16.10;;;14.50;;
15716;SDS011;7960;50.908;4.204;2023-06-10T05:06:26;15.67;;;14.17;;
15716;SDS011;7960;50.908;4.204;2023-06-10T05:08:53;17.47;;;14.07;;
15716;SDS011;7960;50.908;4.204;2023-06-10T05:11:19;17.40;;;15.70;;
15716;SDS011;7960;50.908;4.204;2023-06-10T05:13:47;17.07;;;15.13;;
15716;SDS011;7960;50.908;4.204;2023-06-10T05:16:13;15.67;;;14.17;;
15716;SDS011;7960;50.908;4.204;2023-06-10T05:18:40;17.47;;;15.60;;
15716;SDS011;7960;50.908;4.204;2023-06-10T05:21:09;16.30;;;14.67;;
15716;SDS011;7960;50.908;4.204;2023-06-10T05:23:36;16.80;;;15.00;;
15716;SDS011;7960;50.908;4.204;2023-06-10T05:26:03;17.00;;;14.87;;
15716;SDS011;7960;50.908;4.204;2023-06-10T05:28:30;16.47;;;14.57;;
15716;SDS011;7960;50.908;4.204;2023-06-10T05:30:57;16.83;;;15.33;;
15716;SDS011;7960;50.908;4.204;2023-06-10T05:33:24;16.73;;;15.13;;
15716;SDS011;7960;50.908;4.204;2023-06-10T05:35:50;17.37;;;15.53;;
15716;SDS011;7960;50.908;4.204;2023-06-10T05:38:19;20.93;;;15.77;;
15716;SDS011;7960;50.908;4.204;2023-06-10T05:40:45;17.37;;;15.37;;
15716;SDS011;7960;50.908;4.204;2023-06-10T05:43:12;17.43;;;15.63;;
15716;SDS011;7960;50.908;4.204;2023-06-10T05:45:41;20.93;;;14.87;;
15716;SDS011;7960;50.908;4.204;2023-06-10T05:48:08;16.57;;;14.97;;
15716;SDS011;7960;50.908;4.204;2023-06-10T05:50:35;17.00;;;15.30;;
15716;SDS011;7960;50.908;4.204;2023-06-10T05:53:04;17.93;;;14.70;;
15716;SDS011;7960;50.908;4.204;2023-06-10T05:55:33;16.07;;;14.60;;
15716;SDS011;7960;50.908;4.204;2023-06-10T05:58:01;18.30;;;14.73;;
15716;SDS011;7960;50.908;4.204;2023-06-10T06:00:27;16.77;;;15.13;;
15716;SDS011;7960;50.908;4.204;2023-06-10T06:02:55;18.00;;;15.37;;
15716;SDS011;7960;50.908;4.204;2023-06-10T06:05:22;16.10;;;14.60;;
15716;SDS011;7960;50.908;4.204;2023-06-10T06:07:49;15.67;;;14.17;;
15716;SDS011;7960;50.908;4.204;2023-06-10T06:10:16;16.07;;;14.53;;
15716;SDS011;7960;50.908;4.204;2023-06-10T06:12:45;16.37;;;14.67;;
15716;SDS011;7960;50.908;4.204;2023-06-10T06:15:12;16.03;;;14.43;;
15716;SDS011;7960;50.908;4.204;2023-06-10T06:17:38;16.63;;;14.30;;
15716;SDS011;7960;50.908;4.204;2023-06-10T06:20:06;16.03;;;14.23;;
15716;SDS011;7960;50.908;4.204;2023-06-10T06:22:33;23.53;;;15.67;;
15716;SDS011;7960;50.908;4.204;2023-06-10T06:25:00;15.43;;;14.00;;
15716;SDS011;7960;50.908;4.204;2023-06-10T06:27:27;14.87;;;13.47;;
15716;SDS011;7960;50.908;4.204;2023-06-10T06:29:56;18.77;;;14.43;;
15716;SDS011;7960;50.908;4.204;2023-06-10T06:32:24;15.57;;;13.63;;
15716;SDS011;7960;50.908;4.204;2023-06-10T06:34:52;15.40;;;13.60;;
15716;SDS011;7960;50.908;4.204;2023-06-10T06:37:20;17.50;;;13.17;;
15716;SDS011;7960;50.908;4.204;2023-06-10T06:39:47;16.50;;;14.37;;
15716;SDS011;7960;50.908;4.204;2023-06-10T06:42:14;19.67;;;13.77;;
15716;SDS011;7960;50.908;4.204;2023-06-10T06:44:41;15.77;;;14.10;;
15716;SDS011;7960;50.908;4.204;2023-06-10T06:47:09;15.00;;;13.60;;
15716;SDS011;7960;50.908;4.204;2023-06-10T06:49:36;15.70;;;13.90;;
15716;SDS011;7960;50.908;4.204;2023-06-10T06:52:03;15.43;;;13.93;;
15716;SDS011;7960;50.908;4.204;2023-06-10T06:54:31;15.50;;;14.10;;
15716;SDS011;7960;50.908;4.204;2023-06-10T06:56:57;15.40;;;13.80;;
15716;SDS011;7960;50.908;4.204;2023-06-10T06:59:24;16.60;;;13.73;;
15716;SDS011;7960;50.908;4.204;2023-06-10T07:01:52;14.83;;;13.30;;
15716;SDS011;7960;50.908;4.204;2023-06-10T07:04:21;15.30;;;13.60;;
15716;SDS011;7960;50.908;4.204;2023-06-10T07:06:48;16.07;;;13.00;;
15716;SDS011;7960;50.908;4.204;2023-06-10T07:09:15;17.60;;;12.63;;
15716;SDS011;7960;50.908;4.204;2023-06-10T07:11:41;15.27;;;13.27;;
15716;SDS011;7960;50.908;4.204;2023-06-10T07:14:08;14.00;;;12.43;;
15716;SDS011;7960;50.908;4.204;2023-06-10T07:16:35;17.23;;;13.30;;
15716;SDS011;7960;50.908;4.204;2023-06-10T07:19:02;13.43;;;12.03;;
15716;SDS011;7960;50.908;4.204;2023-06-10T07:21:30;16.20;;;13.03;;
15716;SDS011;7960;50.908;4.204;2023-06-10T07:23:59;13.37;;;11.93;;
15716;SDS011;7960;50.908;4.204;2023-06-10T07:26:27;13.90;;;12.40;;
15716;SDS011;7960;50.908;4.204;2023-06-10T07:28:54;13.37;;;12.03;;
15716;SDS011;7960;50.908;4.204;2023-06-10T07:31:23;14.10;;;12.77;;
15716;SDS011;7960;50.908;4.204;2023-06-10T07:33:52;15.27;;;13.07;;
15716;SDS011;7960;50.908;4.204;2023-06-10T07:36:19;14.17;;;12.87;;
15716;SDS011;7960;50.908;4.204;2023-06-10T07:38:48;14.00;;;12.27;;
15716;SDS011;7960;50.908;4.204;2023-06-10T07:41:15;18.93;;;13.10;;
15716;SDS011;7960;50.908;4.204;2023-06-10T07:43:44;13.13;;;11.87;;
15716;SDS011;7960;50.908;4.204;2023-06-10T07:46:19;14.47;;;12.23;;
15716;SDS011;7960;50.908;4.204;2023-06-10T07:48:46;13.90;;;11.87;;
15716;SDS011;7960;50.908;4.204;2023-06-10T07:51:13;12.60;;;11.40;;
15716;SDS011;7960;50.908;4.204;2023-06-10T07:53:44;24.23;;;12.77;;
15716;SDS011;7960;50.908;4.204;2023-06-10T07:56:12;13.73;;;12.33;;
15716;SDS011;7960;50.908;4.204;2023-06-10T07:58:46;14.43;;;12.93;;
15716;SDS011;7960;50.908;4.204;2023-06-10T08:01:13;12.87;;;11.57;;
15716;SDS011;7960;50.908;4.204;2023-06-10T08:03:40;12.90;;;10.97;;
15716;SDS011;7960;50.908;4.204;2023-06-10T08:06:07;12.43;;;11.20;;
15716;SDS011;7960;50.908;4.204;2023-06-10T08:08:37;14.60;;;10.63;;
15716;SDS011;7960;50.908;4.204;2023-06-10T08:11:07;17.40;;;10.85;;
15716;SDS011;7960;50.908;4.204;2023-06-10T08:13:35;12.10;;;10.93;;
15716;SDS011;7960;50.908;4.204;2023-06-10T08:16:07;11.47;;;10.17;;
15716;SDS011;7960;50.908;4.204;2023-06-10T08:18:33;12.30;;;10.77;;
15716;SDS011;7960;50.908;4.204;2023-06-10T08:21:00;11.77;;;10.43;;
15716;SDS011;7960;50.908;4.204;2023-06-10T08:23:28;11.03;;;9.93;;
15716;SDS011;7960;50.908;4.204;2023-06-10T08:25:55;12.33;;;9.87;;
15716;SDS011;7960;50.908;4.204;2023-06-10T08:28:23;12.25;;;9.88;;
15716;SDS011;7960;50.908;4.204;2023-06-10T08:30:51;12.50;;;10.67;;
15716;SDS011;7960;50.908;4.204;2023-06-10T08:33:18;16.63;;;9.83;;
15716;SDS011;7960;50.908;4.204;2023-06-10T08:35:45;12.67;;;10.57;;
15716;SDS011;7960;50.908;4.204;2023-06-10T08:38:11;14.57;;;10.33;;
15716;SDS011;7960;50.908;4.204;2023-06-10T08:40:39;12.87;;;9.97;;
15716;SDS011;7960;50.908;4.204;2023-06-10T08:43:06;11.30;;;10.30;;
15716;SDS011;7960;50.908;4.204;2023-06-10T08:45:34;11.73;;;10.07;;
15716;SDS011;7960;50.908;4.204;2023-06-10T08:48:03;10.38;;;9.38;;
15716;SDS011;7960;50.908;4.204;2023-06-10T08:50:32;15.60;;;9.37;;
15716;SDS011;7960;50.908;4.204;2023-06-10T08:53:04;11.40;;;9.40;;
15716;SDS011;7960;50.908;4.204;2023-06-10T08:55:32;14.13;;;9.80;;
15716;SDS011;7960;50.908;4.204;2023-06-10T08:57:59;12.68;;;10.00;;
15716;SDS011;7960;50.908;4.204;2023-06-10T09:00:27;11.70;;;9.88;;
15716;SDS011;7960;50.908;4.204;2023-06-10T09:02:55;12.98;;;9.75;;
15716;SDS011;7960;50.908;4.204;2023-06-10T09:05:24;13.75;;;9.80;;
15716;SDS011;7960;50.908;4.204;2023-06-10T09:07:54;20.50;;;10.25;;
15716;SDS011;7960;50.908;4.204;2023-06-10T09:10:23;14.93;;;9.60;;
15716;SDS011;7960;50.908;4.204;2023-06-10T09:12:50;10.70;;;9.52;;
15716;SDS011;7960;50.908;4.204;2023-06-10T09:15:17;14.85;;;12.18;;
15716;SDS011;7960;50.908;4.204;2023-06-10T09:17:44;11.15;;;9.63;;
15716;SDS011;7960;50.908;4.204;2023-06-10T09:20:11;12.18;;;9.30;;
15716;SDS011;7960;50.908;4.204;2023-06-10T09:22:40;10.55;;;9.13;;
15716;SDS011;7960;50.908;4.204;2023-06-10T09:25:09;11.60;;;8.95;;
15716;SDS011;7960;50.908;4.204;2023-06-10T09:27:43;9.82;;;8.82;;
15716;SDS011;7960;50.908;4.204;2023-06-10T09:30:23;11.40;;;8.20;;
15716;SDS011;7960;50.908;4.204;2023-06-10T09:32:52;12.60;;;9.32;;
15716;SDS011;7960;50.908;4.204;2023-06-10T09:35:21;9.65;;;8.60;;
15716;SDS011;7960;50.908;4.204;2023-06-10T09:37:51;10.27;;;9.23;;
15716;SDS011;7960;50.908;4.204;2023-06-10T09:40:19;9.23;;;8.32;;
15716;SDS011;7960;50.908;4.204;2023-06-10T09:42:46;10.57;;;9.48;;
15716;SDS011;7960;50.908;4.204;2023-06-10T09:45:20;10.48;;;8.45;;
15716;SDS011;7960;50.908;4.204;2023-06-10T09:47:47;11.07;;;8.57;;
15716;SDS011;7960;50.908;4.204;2023-06-10T09:50:17;15.70;;;9.20;;
15716;SDS011;7960;50.908;4.204;2023-06-10T09:52:44;9.90;;;8.90;;
15716;SDS011;7960;50.908;4.204;2023-06-10T09:55:13;9.63;;;8.25;;
15716;SDS011;7960;50.908;4.204;2023-06-10T09:57:41;8.98;;;8.18;;
15716;SDS011;7960;50.908;4.204;2023-06-10T10:00:11;9.98;;;9.07;;
15716;SDS011;7960;50.908;4.204;2023-06-10T10:02:45;11.25;;;8.77;;
15716;SDS011;7960;50.908;4.204;2023-06-10T10:05:14;8.95;;;8.02;;
15716;SDS011;7960;50.908;4.204;2023-06-10T10:07:42;9.00;;;8.07;;
15716;SDS011;7960;50.908;4.204;2023-06-10T10:10:09;10.43;;;8.90;;
15716;SDS011;7960;50.908;4.204;2023-06-10T10:12:39;9.13;;;8.32;;
15716;SDS011;7960;50.908;4.204;2023-06-10T10:15:07;9.25;;;8.45;;
15716;SDS011;7960;50.908;4.204;2023-06-10T10:17:36;12.23;;;8.95;;
15716;SDS011;7960;50.908;4.204;2023-06-10T10:20:06;12.82;;;8.45;;
15716;SDS011;7960;50.908;4.204;2023-06-10T10:22:35;9.40;;;8.50;;
15716;SDS011;7960;50.908;4.204;2023-06-10T10:25:05;8.73;;;7.90;;
15716;SDS011;7960;50.908;4.204;2023-06-10T10:27:36;8.57;;;7.70;;
15716;SDS011;7960;50.908;4.204;2023-06-10T10:30:09;9.05;;;8.15;;
15716;SDS011;7960;50.908;4.204;2023-06-10T10:32:38;10.23;;;8.88;;
15716;SDS011;7960;50.908;4.204;2023-06-10T10:35:20;9.27;;;7.70;;
15716;SDS011;7960;50.908;4.204;2023-06-10T10:37:49;9.27;;;8.43;;
15716;SDS011;7960;50.908;4.204;2023-06-10T10:40:19;9.80;;;8.55;;
15716;SDS011;7960;50.908;4.204;2023-06-10T10:42:49;11.00;;;7.85;;
15716;SDS011;7960;50.908;4.204;2023-06-10T10:45:16;10.88;;;7.78;;
15716;SDS011;7960;50.908;4.204;2023-06-10T10:47:45;9.20;;;7.45;;
15716;SDS011;7960;50.908;4.204;2023-06-10T10:50:19;8.27;;;7.40;;
15716;SDS011;7960;50.908;4.204;2023-06-10T10:52:50;8.25;;;7.63;;
15716;SDS011;7960;50.908;4.204;2023-06-10T10:55:19;8.88;;;8.07;;
15716;SDS011;7960;50.908;4.204;2023-06-10T10:57:54;8.35;;;7.60;;
15716;SDS011;7960;50.908;4.204;2023-06-10T11:00:28;9.48;;;8.27;;
15716;SDS011;7960;50.908;4.204;2023-06-10T11:02:59;9.70;;;7.82;;
15716;SDS011;7960;50.908;4.204;2023-06-10T11:05:32;7.82;;;7.13;;
15716;SDS011;7960;50.908;4.204;2023-06-10T11:08:03;8.32;;;7.47;;
15716;SDS011;7960;50.908;4.204;2023-06-10T11:10:31;8.70;;;7.80;;
15716;SDS011;7960;50.908;4.204;2023-06-10T11:13:00;15.32;;;9.00;;
15716;SDS011;7960;50.908;4.204;2023-06-10T11:15:32;8.23;;;7.43;;
15716;SDS011;7960;50.908;4.204;2023-06-10T11:18:13;8.60;;;7.55;;
15716;SDS011;7960;50.908;4.204;2023-06-10T11:20:52;9.88;;;7.82;;
15716;SDS011;7960;50.908;4.204;2023-06-10T11:23:33;9.57;;;8.15;;
15716;SDS011;7960;50.908;4.204;2023-06-10T11:26:14;13.68;;;8.00;;
15716;SDS011;7960;50.908;4.204;2023-06-10T11:31:49;8.02;;;7.32;;
15716;SDS011;7960;50.908;4.204;2023-06-10T11:34:21;7.22;;;6.60;;
15716;SDS011;7960;50.908;4.204;2023-06-10T11:36:52;7.32;;;6.57;;
15716;SDS011;7960;50.908;4.204;2023-06-10T11:39:20;7.45;;;6.78;;
15716;SDS011;7960;50.908;4.204;2023-06-10T11:41:48;9.82;;;7.50;;
15716;SDS011;7960;50.908;4.204;2023-06-10T11:44:19;9.20;;;8.10;;
15716;SDS011;7960;50.908;4.204;2023-06-10T11:46:47;11.98;;;7.50;;
15716;SDS011;7960;50.908;4.204;2023-06-10T11:49:14;9.52;;;7.70;;
15716;SDS011;7960;50.908;4.204;2023-06-10T11:51:41;9.68;;;8.10;;
15716;SDS011;7960;50.908;4.204;2023-06-10T11:54:14;18.77;;;10.02;;
15716;SDS011;7960;50.908;4.204;2023-06-10T11:56:43;9.65;;;8.65;;
15716;SDS011;7960;50.908;4.204;2023-06-10T11:59:10;9.52;;;7.55;;
15716;SDS011;7960;50.908;4.204;2023-06-10T12:01:41;8.93;;;8.05;;
15716;SDS011;7960;50.908;4.204;2023-06-10T12:04:09;9.90;;;8.90;;
15716;SDS011;7960;50.908;4.204;2023-06-10T12:06:38;12.65;;;8.40;;
15716;SDS011;7960;50.908;4.204;2023-06-10T12:09:19;9.88;;;7.55;;
15716;SDS011;7960;50.908;4.204;2023-06-10T12:11:48;9.80;;;8.35;;
15716;SDS011;7960;50.908;4.204;2023-06-10T12:17:20;8.75;;;7.95;;
15716;SDS011;7960;50.908;4.204;2023-06-10T12:19:48;26.42;;;9.88;;
15716;SDS011;7960;50.908;4.204;2023-06-10T12:22:14;9.75;;;8.65;;
15716;SDS011;7960;50.908;4.204;2023-06-10T12:24:44;10.23;;;9.10;;
15716;SDS011;7960;50.908;4.204;2023-06-10T12:27:11;9.95;;;9.02;;
15716;SDS011;7960;50.908;4.204;2023-06-10T12:29:39;11.95;;;8.82;;
15716;SDS011;7960;50.908;4.204;2023-06-10T12:32:16;10.10;;;9.07;;
15716;SDS011;7960;50.908;4.204;2023-06-10T12:34:46;11.95;;;9.25;;
15716;SDS011;7960;50.908;4.204;2023-06-10T12:37:13;10.60;;;9.50;;
15716;SDS011;7960;50.908;4.204;2023-06-10T12:39:40;9.80;;;8.77;;
15716;SDS011;7960;50.908;4.204;2023-06-10T12:42:08;9.95;;;8.90;;
15716;SDS011;7960;50.908;4.204;2023-06-10T12:44:39;11.65;;;9.55;;
15716;SDS011;7960;50.908;4.204;2023-06-10T12:47:07;10.10;;;9.18;;
15716;SDS011;7960;50.908;4.204;2023-06-10T12:49:35;9.50;;;8.63;;
15716;SDS011;7960;50.908;4.204;2023-06-10T12:52:04;9.63;;;8.73;;
15716;SDS011;7960;50.908;4.204;2023-06-10T12:54:31;9.95;;;8.98;;
15716;SDS011;7960;50.908;4.204;2023-06-10T12:56:58;10.60;;;9.48;;
15716;SDS011;7960;50.908;4.204;2023-06-10T12:59:26;12.60;;;10.00;;
15716;SDS011;7960;50.908;4.204;2023-06-10T13:01:53;12.35;;;9.57;;
15716;SDS011;7960;50.908;4.204;2023-06-10T13:04:21;10.07;;;9.07;;
15716;SDS011;7960;50.908;4.204;2023-06-10T13:06:48;10.40;;;9.40;;
15716;SDS011;7960;50.908;4.204;2023-06-10T13:09:16;10.75;;;9.02;;
15716;SDS011;7960;50.908;4.204;2023-06-10T13:11:43;9.40;;;8.48;;
15716;SDS011;7960;50.908;4.204;2023-06-10T13:14:10;9.45;;;8.57;;
15716;SDS011;7960;50.908;4.204;2023-06-10T13:16:38;9.77;;;8.80;;
15716;SDS011;7960;50.908;4.204;2023-06-10T13:19:05;9.60;;;8.70;;
15716;SDS011;7960;50.908;4.204;2023-06-10T13:21:33;9.88;;;8.88;;
15716;SDS011;7960;50.908;4.204;2023-06-10T13:24:00;9.98;;;9.02;;
15716;SDS011;7960;50.908;4.204;2023-06-10T13:26:28;10.00;;;9.10;;
15716;SDS011;7960;50.908;4.204;2023-06-10T13:28:55;9.63;;;8.63;;
15716;SDS011;7960;50.908;4.204;2023-06-10T13:31:22;9.88;;;8.85;;
15716;SDS011;7960;50.908;4.204;2023-06-10T13:33:49;9.95;;;9.05;;
15716;SDS011;7960;50.908;4.204;2023-06-10T13:36:16;9.55;;;8.65;;
15716;SDS011;7960;50.908;4.204;2023-06-10T13:38:43;9.90;;;9.00;;
15716;SDS011;7960;50.908;4.204;2023-06-10T13:41:10;11.32;;;9.32;;
15716;SDS011;7960;50.908;4.204;2023-06-10T13:43:39;10.30;;;8.77;;
15716;SDS011;7960;50.908;4.204;2023-06-10T13:46:05;10.38;;;8.73;;
15716;SDS011;7960;50.908;4.204;2023-06-10T13:48:32;10.07;;;9.15;;
15716;SDS011;7960;50.908;4.204;2023-06-10T13:51:00;10.10;;;9.10;;
15716;SDS011;7960;50.908;4.204;2023-06-10T13:53:27;10.15;;;9.13;;
15716;SDS011;7960;50.908;4.204;2023-06-10T13:55:53;10.85;;;9.10;;
15716;SDS011;7960;50.908;4.204;2023-06-10T13:58:20;9.55;;;8.65;;
15716;SDS011;7960;50.908;4.204;2023-06-10T14:00:49;9.15;;;8.25;;
15716;SDS011;7960;50.908;4.204;2023-06-10T14:03:15;12.60;;;9.13;;
15716;SDS011;7960;50.908;4.204;2023-06-10T14:05:42;9.63;;;8.73;;
15716;SDS011;7960;50.908;4.204;2023-06-10T14:08:09;9.45;;;8.63;;
15716;SDS011;7960;50.908;4.204;2023-06-10T14:10:36;9.65;;;8.65;;
15716;SDS011;7960;50.908;4.204;2023-06-10T14:13:03;10.05;;;8.93;;
15716;SDS011;7960;50.908;4.204;2023-06-10T14:15:31;9.75;;;8.75;;
15716;SDS011;7960;50.908;4.204;2023-06-10T14:17:59;11.15;;;8.80;;
15716;SDS011;7960;50.908;4.204;2023-06-10T14:20:26;9.98;;;8.98;;
15716;SDS011;7960;50.908;4.204;2023-06-10T14:22:56;14.55;;;8.75;;
15716;SDS011;7960;50.908;4.204;2023-06-10T14:25:23;9.38;;;8.60;;
15716;SDS011;7960;50.908;4.204;2023-06-10T14:27:50;9.73;;;8.73;;
15716;SDS011;7960;50.908;4.204;2023-06-10T14:30:17;10.60;;;9.15;;
15716;SDS011;7960;50.908;4.204;2023-06-10T14:32:43;11.20;;;8.82;;
15716;SDS011;7960;50.908;4.204;2023-06-10T14:35:12;9.15;;;8.10;;
15716;SDS011;7960;50.908;4.204;2023-06-10T14:37:39;10.95;;;9.05;;
15716;SDS011;7960;50.908;4.204;2023-06-10T14:40:06;9.77;;;8.98;;
15716;SDS011;7960;50.908;4.204;2023-06-10T14:42:33;12.05;;;9.60;;
15716;SDS011;7960;50.908;4.204;2023-06-10T14:45:00;9.85;;;8.85;;
15716;SDS011;7960;50.908;4.204;2023-06-10T14:47:27;11.00;;;8.68;;
15716;SDS011;7960;50.908;4.204;2023-06-10T14:49:54;9.48;;;8.63;;
15716;SDS011;7960;50.908;4.204;2023-06-10T14:52:22;9.70;;;8.80;;
15716;SDS011;7960;50.908;4.204;2023-06-10T14:54:49;10.73;;;9.77;;